createdAt,value
2023-04-14T00:00:49.940Z,4.30
2023-04-14T00:03:18.460Z,3.63
2023-04-14T00:05:46.429Z,5.30
2023-04-14T00:08:14.247Z,7.87
2023-04-14T00:10:42.242Z,4.17
2023-04-14T00:13:11.337Z,8.60
2023-04-14T00:15:41.426Z,4.20
2023-04-14T00:18:09.245Z,7.57
2023-04-14T00:20:37.318Z,7.90
2023-04-14T00:23:05.147Z,6.90
2023-04-14T00:25:32.983Z,5.13
2023-04-14T00:28:00.761Z,2.53
2023-04-14T00:30:30.368Z,4.13
2023-04-14T00:32:58.155Z,6.33
2023-04-14T00:35:26.070Z,7.50
2023-04-14T00:37:53.772Z,5.20
2023-04-14T00:40:22.067Z,4.03
2023-04-14T00:42:50.650Z,5.40
2023-04-14T00:45:18.314Z,5.93
2023-04-14T00:47:50.700Z,4.10
2023-04-14T00:50:20.273Z,5.23
2023-04-14T00:52:50.277Z,3.67
2023-04-14T00:55:20.178Z,5.50
2023-04-14T00:57:48.097Z,6.80
2023-04-14T01:00:16.757Z,6.10
2023-04-14T01:02:44.789Z,2.83
2023-04-14T01:05:14.130Z,3.43
2023-04-14T01:07:42.524Z,4.47
2023-04-14T01:10:11.393Z,7.63
2023-04-14T01:13:04.492Z,4.77
2023-04-14T01:15:37.432Z,4.87
2023-04-14T01:18:11.987Z,2.47
2023-04-14T01:20:43.440Z,4.67
2023-04-14T01:23:17.124Z,7.97
2023-04-14T01:26:19.965Z,3.03
2023-04-14T01:29:08.749Z,2.53
2023-04-14T01:31:42.625Z,4.93
2023-04-14T01:34:15.445Z,1.63
2023-04-14T01:36:45.914Z,2.50
2023-04-14T01:39:24.551Z,5.73
2023-04-14T01:41:58.138Z,7.80
2023-04-14T01:44:28.077Z,5.47
2023-04-14T01:47:02.332Z,9.93
2023-04-14T01:49:32.904Z,3.43
2023-04-14T01:52:01.753Z,4.30
2023-04-14T01:54:32.725Z,8.67
2023-04-14T01:57:02.801Z,6.43
2023-04-14T01:59:33.199Z,5.03
2023-04-14T02:02:03.695Z,6.17
2023-04-14T02:04:33.261Z,3.43
2023-04-14T02:07:03.994Z,3.37
2023-04-14T02:09:33.312Z,3.73
2023-04-14T02:12:02.282Z,3.47
2023-04-14T02:14:32.823Z,3.70
2023-04-14T02:17:03.562Z,3.43
2023-04-14T02:19:31.980Z,9.27
2023-04-14T02:22:00.328Z,4.93
2023-04-14T02:24:28.539Z,2.87
2023-04-14T02:27:01.387Z,6.93
2023-04-14T02:29:30.175Z,4.07
2023-04-14T02:32:04.633Z,4.37
2023-04-14T02:34:38.163Z,6.87
2023-04-14T02:37:10.995Z,5.10
2023-04-14T02:39:42.919Z,3.87
2023-04-14T02:42:14.800Z,3.27
2023-04-14T02:44:49.669Z,2.43
2023-04-14T02:47:23.959Z,9.23
2023-04-14T02:49:54.859Z,5.23
2023-04-14T02:52:25.734Z,3.97
2023-04-14T02:54:55.024Z,6.13
2023-04-14T02:57:23.832Z,3.93
2023-04-14T02:59:52.952Z,3.13
2023-04-14T03:02:23.265Z,3.87
2023-04-14T03:04:53.387Z,5.03
2023-04-14T03:07:23.208Z,5.23
2023-04-14T03:09:51.586Z,6.70
2023-04-14T03:12:21.018Z,6.90
2023-04-14T03:14:49.454Z,2.40
2023-04-14T03:17:21.157Z,4.57
2023-04-14T03:19:50.661Z,3.27
2023-04-14T03:22:20.577Z,3.17
2023-04-14T03:24:48.478Z,4.10
2023-04-14T03:27:26.233Z,2.83
2023-04-14T03:29:56.411Z,8.67
2023-04-14T03:32:26.234Z,11.77
2023-04-14T03:34:59.101Z,7.60
2023-04-14T03:37:29.082Z,6.80
2023-04-14T03:40:00.672Z,9.90
2023-04-14T03:42:30.412Z,6.00
2023-04-14T03:45:00.654Z,4.97
2023-04-14T03:47:31.664Z,9.40
2023-04-14T03:50:04.319Z,5.50
2023-04-14T03:52:35.591Z,7.23
2023-04-14T03:55:06.720Z,6.53
2023-04-14T03:57:37.275Z,6.77
2023-04-14T04:00:09.110Z,8.53
2023-04-14T04:02:38.476Z,8.47
2023-04-14T04:05:10.290Z,7.20
2023-04-14T04:07:39.957Z,10.07
2023-04-14T04:10:09.586Z,8.10
2023-04-14T04:12:38.600Z,7.63
2023-04-14T04:15:07.936Z,7.13
2023-04-14T04:17:37.017Z,6.70
2023-04-14T04:20:11.126Z,6.60
2023-04-14T04:22:41.955Z,12.13
2023-04-14T04:25:12.562Z,5.20
2023-04-14T04:27:40.322Z,7.33
2023-04-14T04:30:10.152Z,7.53
2023-04-14T04:32:38.393Z,7.83
2023-04-14T04:35:08.270Z,10.07
2023-04-14T04:37:38.809Z,7.30
2023-04-14T04:40:07.959Z,8.53
2023-04-14T04:42:35.972Z,11.00
2023-04-14T04:45:03.812Z,10.10
2023-04-14T04:47:31.740Z,9.27
2023-04-14T04:49:59.557Z,6.00
2023-04-14T04:52:27.385Z,9.43
2023-04-14T04:54:56.681Z,9.23
2023-04-14T04:57:24.590Z,6.13
2023-04-14T04:59:52.497Z,6.63
2023-04-14T05:02:20.452Z,8.93
2023-04-14T05:07:16.758Z,9.53
2023-04-14T05:09:44.467Z,11.13
2023-04-14T05:12:13.673Z,10.70
2023-04-14T05:14:41.606Z,12.40
2023-04-14T05:17:09.385Z,11.67
2023-04-14T05:19:37.132Z,15.37
2023-04-14T05:22:04.893Z,13.43
2023-04-14T05:24:32.877Z,13.83
2023-04-14T05:27:13.717Z,11.10
2023-04-14T05:29:43.782Z,10.97
2023-04-14T05:32:13.425Z,12.03
2023-04-14T05:34:41.308Z,11.33
2023-04-14T05:37:09.458Z,12.93
2023-04-14T05:39:37.375Z,15.67
2023-04-14T05:42:05.633Z,16.47
2023-04-14T05:44:33.430Z,14.90
2023-04-14T05:47:02.666Z,11.87
2023-04-14T05:49:30.601Z,12.03
2023-04-14T05:51:58.759Z,12.20
2023-04-14T05:54:26.489Z,11.17
2023-04-14T05:56:54.276Z,11.50
2023-04-14T05:59:22.081Z,13.37
2023-04-14T06:01:49.924Z,10.70
2023-04-14T06:04:19.303Z,8.10
2023-04-14T06:06:47.307Z,8.73
2023-04-14T06:09:15.077Z,13.20
2023-04-14T06:11:42.797Z,6.13
2023-04-14T06:14:10.709Z,10.30
2023-04-14T06:16:39.552Z,14.30
2023-04-14T06:19:07.361Z,12.47
2023-04-14T06:21:36.509Z,10.27
2023-04-14T06:24:04.288Z,10.43
2023-04-14T06:26:32.657Z,6.47
2023-04-14T06:29:00.725Z,7.97
2023-04-14T06:31:28.847Z,10.33
2023-04-14T06:33:56.647Z,6.40
2023-04-14T06:36:24.560Z,7.67
2023-04-14T06:38:53.800Z,9.30
2023-04-14T06:41:21.603Z,9.67
2023-04-14T06:43:49.331Z,7.13
2023-04-14T06:46:17.449Z,6.53
2023-04-14T06:48:45.245Z,6.97
2023-04-14T06:51:13.794Z,8.63
2023-04-14T06:53:41.658Z,7.70
2023-04-14T06:56:11.109Z,9.80
2023-04-14T06:58:40.117Z,8.47
2023-04-14T07:01:07.993Z,9.63
2023-04-14T07:03:35.765Z,9.93
2023-04-14T07:06:05.131Z,7.13
2023-04-14T07:08:34.891Z,5.60
2023-04-14T07:11:03.864Z,10.60
2023-04-14T07:13:33.768Z,6.47
2023-04-14T07:16:02.318Z,4.80
2023-04-14T07:18:30.514Z,6.50
2023-04-14T07:20:58.848Z,6.50
2023-04-14T07:23:26.736Z,9.43
2023-04-14T07:25:56.544Z,6.67
2023-04-14T07:28:25.443Z,5.03
2023-04-14T07:30:55.084Z,4.80
2023-04-14T07:33:23.658Z,9.43
2023-04-14T07:36:01.932Z,7.03
2023-04-14T07:38:31.021Z,8.17
2023-04-14T07:40:58.751Z,5.10
2023-04-14T07:43:26.564Z,5.20
2023-04-14T07:45:55.711Z,7.07
2023-04-14T07:48:23.536Z,4.30
2023-04-14T07:50:51.307Z,4.93
2023-04-14T07:53:18.991Z,4.53
2023-04-14T07:55:46.815Z,6.67
2023-04-14T07:58:15.885Z,5.77
2023-04-14T08:00:43.869Z,8.10
2023-04-14T08:03:13.773Z,8.70
2023-04-14T08:05:42.576Z,5.07
2023-04-14T08:08:10.736Z,4.97
2023-04-14T08:10:39.075Z,4.97
2023-04-14T08:13:06.899Z,5.73
2023-04-14T08:15:34.661Z,4.50
2023-04-14T08:18:03.002Z,6.73
2023-04-14T08:20:32.278Z,5.17
2023-04-14T08:22:59.952Z,2.60
2023-04-14T08:25:27.816Z,6.73
2023-04-14T08:27:55.594Z,6.20
2023-04-14T08:30:24.172Z,4.10
2023-04-14T08:32:52.124Z,11.37
2023-04-14T08:35:39.714Z,3.17
2023-04-14T08:38:09.452Z,4.17
2023-04-14T08:40:40.374Z,6.17
2023-04-14T08:43:08.578Z,5.80
2023-04-14T08:45:37.384Z,3.20
2023-04-14T08:48:06.102Z,2.20
2023-04-14T08:50:38.480Z,5.77
2023-04-14T08:53:10.029Z,3.80
2023-04-14T08:55:41.779Z,8.77
2023-04-14T08:58:11.564Z,4.67
2023-04-14T09:00:40.168Z,2.97
2023-04-14T09:03:09.347Z,2.93
2023-04-14T09:05:37.791Z,6.40
2023-04-14T09:08:05.889Z,3.17
2023-04-14T09:10:36.060Z,2.50
2023-04-14T09:13:05.454Z,3.93
2023-04-14T09:15:33.372Z,2.40
2023-04-14T09:18:01.336Z,4.23
2023-04-14T09:20:38.298Z,2.37
2023-04-14T09:23:09.373Z,1.47
2023-04-14T09:25:39.531Z,4.60
2023-04-14T09:28:07.546Z,4.13
2023-04-14T09:30:35.688Z,3.63
2023-04-14T09:33:06.335Z,2.80
2023-04-14T09:35:45.916Z,2.13
2023-04-14T09:38:14.001Z,4.13
2023-04-14T09:40:44.974Z,1.47
2023-04-14T09:43:27.131Z,3.40
2023-04-14T09:45:56.634Z,4.27
2023-04-14T09:48:24.992Z,4.10
2023-04-14T09:51:00.278Z,3.03
2023-04-14T09:53:29.717Z,4.17
2023-04-14T09:56:02.562Z,4.40
2023-04-14T09:58:31.635Z,5.50
2023-04-14T10:00:59.850Z,2.97
2023-04-14T10:03:36.005Z,4.40
2023-04-14T10:06:07.260Z,3.97
2023-04-14T10:08:37.176Z,3.73
2023-04-14T10:11:18.029Z,7.03
2023-04-14T10:13:46.517Z,5.20
2023-04-14T10:16:14.816Z,3.87
2023-04-14T10:18:43.166Z,8.73
2023-04-14T10:21:11.484Z,4.93
2023-04-14T10:23:41.305Z,4.90
2023-04-14T10:26:10.042Z,2.93
2023-04-14T10:28:43.104Z,3.13
2023-04-14T10:31:16.111Z,4.33
2023-04-14T10:33:44.327Z,4.00
2023-04-14T10:36:12.134Z,2.43
2023-04-14T10:38:42.308Z,5.00
2023-04-14T10:41:10.708Z,3.27
2023-04-14T10:43:40.437Z,3.17
2023-04-14T10:46:09.725Z,2.70
2023-04-14T10:48:40.054Z,2.50
2023-04-14T10:51:09.699Z,3.30
2023-04-14T10:53:39.808Z,2.73
2023-04-14T10:56:07.998Z,2.80
2023-04-14T10:58:37.684Z,2.40
2023-04-14T11:01:31.518Z,6.03
2023-04-14T11:04:12.068Z,4.70
2023-04-14T11:06:53.557Z,5.33
2023-04-14T11:09:37.141Z,4.00
2023-04-14T11:12:23.093Z,3.23
2023-04-14T11:14:51.530Z,4.77
2023-04-14T11:17:23.159Z,5.17
2023-04-14T11:19:55.191Z,6.33
2023-04-14T11:22:45.942Z,2.70
2023-04-14T11:25:16.279Z,2.60
2023-04-14T11:27:45.472Z,1.33
2023-04-14T11:30:15.651Z,13.47
2023-04-14T11:32:49.062Z,4.20
2023-04-14T11:35:16.971Z,1.73
2023-04-14T11:37:45.999Z,1.67
2023-04-14T11:40:15.043Z,3.97
2023-04-14T11:42:45.183Z,4.30
2023-04-14T11:45:15.419Z,7.07
2023-04-14T11:47:58.045Z,2.30
2023-04-14T11:50:26.478Z,9.43
2023-04-14T11:52:57.452Z,10.90
2023-04-14T11:55:26.754Z,3.60
2023-04-14T11:57:54.888Z,2.20
2023-04-14T12:00:23.075Z,1.70
2023-04-14T12:02:55.640Z,3.07
2023-04-14T12:05:30.416Z,2.03
2023-04-14T12:08:00.151Z,1.73
2023-04-14T12:10:28.258Z,1.60
2023-04-14T12:13:03.188Z,2.20
2023-04-14T12:15:32.677Z,3.13
2023-04-14T12:18:03.058Z,1.63
2023-04-14T12:20:42.827Z,2.77
2023-04-14T12:23:10.942Z,3.10
2023-04-14T12:25:38.701Z,3.63
2023-04-14T12:28:07.113Z,1.47
2023-04-14T12:30:35.998Z,1.60
2023-04-14T12:33:12.069Z,2.57
2023-04-14T12:35:40.705Z,3.33
2023-04-14T12:38:13.788Z,2.43
2023-04-14T12:40:43.903Z,2.83
2023-04-14T12:43:12.043Z,2.97
2023-04-14T12:45:43.947Z,0.90
2023-04-14T12:48:13.974Z,1.50
2023-04-14T12:50:41.837Z,1.50
2023-04-14T12:53:25.297Z,4.33
2023-04-14T12:56:07.187Z,2.13
2023-04-14T12:58:35.235Z,2.23
2023-04-14T13:01:03.040Z,1.07
2023-04-14T13:03:44.853Z,2.43
2023-04-14T13:06:16.326Z,2.07
2023-04-14T13:08:45.554Z,2.23
2023-04-14T13:11:13.487Z,2.93
2023-04-14T13:13:41.381Z,3.80
2023-04-14T13:16:13.415Z,2.97
2023-04-14T13:18:44.814Z,1.77
2023-04-14T13:21:12.669Z,1.80
2023-04-14T13:23:40.773Z,4.27
2023-04-14T13:26:08.829Z,5.37
2023-04-14T13:28:36.959Z,2.40
2023-04-14T13:31:04.967Z,2.03
2023-04-14T13:33:33.735Z,1.33
2023-04-14T13:36:03.834Z,4.37
2023-04-14T13:38:31.797Z,1.57
2023-04-14T13:40:59.592Z,1.53
2023-04-14T13:43:27.367Z,1.87
2023-04-14T13:45:59.087Z,5.33
2023-04-14T13:48:27.411Z,1.97
2023-04-14T13:50:55.924Z,1.43
2023-04-14T13:53:25.240Z,3.80
2023-04-14T13:55:52.979Z,2.83
2023-04-14T13:58:21.407Z,4.13
2023-04-14T14:00:49.200Z,2.43
2023-04-14T14:03:17.566Z,1.43
2023-04-14T14:05:51.751Z,3.87
2023-04-14T14:08:19.569Z,1.23
2023-04-14T14:10:48.798Z,1.87
2023-04-14T14:13:18.062Z,2.50
2023-04-14T14:15:46.506Z,2.37
2023-04-14T14:18:16.513Z,2.30
2023-04-14T14:20:45.231Z,2.03
2023-04-14T14:23:13.197Z,3.67
2023-04-14T14:25:41.315Z,0.90
2023-04-14T14:28:10.699Z,2.33
2023-04-14T14:30:38.621Z,2.87
2023-04-14T14:33:06.665Z,3.40
2023-04-14T14:35:34.396Z,3.73
2023-04-14T14:38:02.152Z,2.23
2023-04-14T14:40:30.498Z,4.13
2023-04-14T14:42:58.430Z,1.60
2023-04-14T14:45:30.979Z,5.33
2023-04-14T14:48:00.621Z,2.97
2023-04-14T14:50:28.489Z,4.93
2023-04-14T14:52:56.886Z,2.63
2023-04-14T14:55:24.814Z,2.00
2023-04-14T14:57:52.678Z,3.03
2023-04-14T15:00:20.729Z,1.80
2023-04-14T15:02:50.048Z,1.80
2023-04-14T15:05:18.289Z,2.97
2023-04-14T15:07:46.186Z,1.83
2023-04-14T15:10:14.976Z,3.10
2023-04-14T15:12:42.675Z,4.23
2023-04-14T15:15:11.090Z,0.70
2023-04-14T15:17:38.993Z,2.43
2023-04-14T15:20:09.434Z,1.93
2023-04-14T15:22:37.142Z,1.53
2023-04-14T15:25:05.447Z,2.20
2023-04-14T15:27:33.330Z,3.67
2023-04-14T15:30:01.059Z,1.20
2023-04-14T15:32:28.857Z,4.00
2023-04-14T15:34:56.613Z,3.97
2023-04-14T15:37:26.590Z,2.80
2023-04-14T15:39:54.414Z,1.93
2023-04-14T15:42:22.175Z,4.60
2023-04-14T15:44:51.031Z,2.73
2023-04-14T15:47:18.887Z,3.50
2023-04-14T15:49:49.949Z,2.33
2023-04-14T15:52:20.908Z,2.30
2023-04-14T15:54:50.034Z,6.30
2023-04-14T15:57:17.837Z,2.03
2023-04-14T15:59:45.665Z,0.83
2023-04-14T16:02:13.435Z,2.50
2023-04-14T16:04:41.761Z,3.93
2023-04-14T16:07:09.727Z,6.10
2023-04-14T16:09:37.570Z,1.90
2023-04-14T16:12:06.617Z,2.40
2023-04-14T16:14:35.535Z,1.77
2023-04-14T16:17:03.530Z,1.93
2023-04-14T16:19:31.299Z,3.03
2023-04-14T16:21:59.089Z,5.17
2023-04-14T16:24:26.899Z,1.77
2023-04-14T16:26:54.700Z,3.00
2023-04-14T16:29:23.922Z,3.80
2023-04-14T16:31:52.055Z,4.37
2023-04-14T16:34:20.393Z,2.27
2023-04-14T16:36:48.378Z,2.50
2023-04-14T16:39:16.233Z,3.60
2023-04-14T16:41:45.270Z,1.90
2023-04-14T16:44:13.485Z,3.77
2023-04-14T16:46:42.602Z,4.53
2023-04-14T16:49:10.953Z,2.77
2023-04-14T16:51:39.136Z,4.20
2023-04-14T16:54:07.193Z,1.23
2023-04-14T16:56:36.808Z,2.57
2023-04-14T16:59:07.107Z,2.53
2023-04-14T17:01:35.188Z,4.33
2023-04-14T17:04:05.220Z,2.23
2023-04-14T17:06:33.459Z,4.17
2023-04-14T17:09:01.534Z,2.87
2023-04-14T17:11:29.305Z,3.47
2023-04-14T17:13:57.005Z,2.30
2023-04-14T17:16:24.740Z,2.40
2023-04-14T17:18:53.367Z,0.90
2023-04-14T17:21:23.230Z,2.00
2023-04-14T17:23:51.067Z,5.40
2023-04-14T17:26:18.872Z,5.50
2023-04-14T17:28:46.627Z,2.50
2023-04-14T17:31:15.109Z,2.87
2023-04-14T17:33:43.557Z,6.30
2023-04-14T17:36:14.190Z,1.60
2023-04-14T17:38:43.728Z,3.87
2023-04-14T17:41:12.899Z,2.87
2023-04-14T17:43:41.614Z,3.30
2023-04-14T17:46:10.327Z,2.73
2023-04-14T17:48:38.348Z,3.93
2023-04-14T17:51:06.435Z,3.10
2023-04-14T17:53:34.217Z,3.53
2023-04-14T17:56:03.494Z,3.07
2023-04-14T17:58:31.816Z,2.60
2023-04-14T18:00:59.628Z,1.90
2023-04-14T18:03:28.488Z,4.03
2023-04-14T18:05:56.565Z,2.30
2023-04-14T18:08:24.711Z,4.33
2023-04-14T18:10:52.454Z,2.33
2023-04-14T18:13:21.555Z,3.30
2023-04-14T18:15:50.641Z,2.87
2023-04-14T18:18:18.414Z,2.50
2023-04-14T18:20:46.796Z,1.13
2023-04-14T18:23:14.541Z,4.27
2023-04-14T18:28:13.202Z,2.53
2023-04-14T18:30:42.394Z,2.90
2023-04-14T18:33:10.389Z,1.70
2023-04-14T18:35:38.157Z,1.90
2023-04-14T18:38:06.132Z,2.93
2023-04-14T18:40:38.221Z,2.13
2023-04-14T18:43:06.048Z,6.77
2023-04-14T18:45:33.690Z,4.47
2023-04-14T18:48:02.895Z,4.43
2023-04-14T18:50:31.068Z,2.47
2023-04-14T18:52:59.214Z,2.63
2023-04-14T18:55:37.102Z,4.00
2023-04-14T18:58:13.580Z,4.27
2023-04-14T19:00:43.146Z,6.07
2023-04-14T19:03:12.435Z,4.03
2023-04-14T19:05:40.442Z,3.10
2023-04-14T19:08:08.541Z,5.93
2023-04-14T19:10:37.381Z,10.57
2023-04-14T19:13:05.764Z,11.20
2023-04-14T19:15:33.551Z,7.20
2023-04-14T19:18:01.428Z,6.70
2023-04-14T19:20:34.293Z,6.27
2023-04-14T19:23:02.057Z,4.23
2023-04-14T19:25:30.918Z,4.43
2023-04-14T19:28:01.191Z,4.53
2023-04-14T19:30:29.258Z,5.13
2023-04-14T19:32:57.805Z,6.07
2023-04-14T19:35:25.656Z,3.83
2023-04-14T19:37:56.632Z,2.90
2023-04-14T19:40:24.603Z,3.73
2023-04-14T19:42:55.231Z,4.63
2023-04-14T19:45:23.349Z,5.00
2023-04-14T19:47:51.694Z,2.10
2023-04-14T19:50:20.072Z,4.00
2023-04-14T19:52:49.776Z,3.53
2023-04-14T19:55:19.077Z,3.37
2023-04-14T19:57:47.340Z,3.07
2023-04-14T20:00:16.876Z,4.77
2023-04-14T20:02:45.181Z,1.43
2023-04-14T20:05:14.008Z,2.47
2023-04-14T20:07:41.781Z,4.47
2023-04-14T20:10:10.803Z,5.83
2023-04-14T20:12:40.392Z,6.23
2023-04-14T20:15:09.307Z,5.53
2023-04-14T20:17:37.092Z,3.97
2023-04-14T20:20:05.847Z,3.37
2023-04-14T20:22:34.227Z,3.27
2023-04-14T20:25:02.264Z,2.83
2023-04-14T20:27:30.060Z,2.57
2023-04-14T20:29:59.661Z,2.00
2023-04-14T20:32:27.570Z,5.23
2023-04-14T20:34:55.511Z,5.53
2023-04-14T20:37:23.530Z,5.60
2023-04-14T20:39:52.526Z,3.73
2023-04-14T20:42:20.825Z,4.00
2023-04-14T20:44:48.699Z,5.73
2023-04-14T20:47:17.974Z,3.53
2023-04-14T20:49:45.676Z,5.87
2023-04-14T20:52:14.088Z,2.27
2023-04-14T20:54:41.796Z,3.43
2023-04-14T20:57:09.966Z,3.33
2023-04-14T20:59:37.758Z,5.73
2023-04-14T21:02:05.686Z,4.47
2023-04-14T21:04:34.830Z,2.77
2023-04-14T21:07:02.764Z,4.53
2023-04-14T21:09:31.026Z,6.13
2023-04-14T21:12:14.317Z,2.97
2023-04-14T21:15:41.411Z,3.37
2023-04-14T21:17:31.986Z,2.77
2023-04-14T21:20:01.343Z,3.23
2023-04-14T21:22:29.105Z,5.10
2023-04-14T21:24:56.942Z,3.93
2023-04-14T21:27:24.851Z,3.03
2023-04-14T21:29:52.841Z,4.80
2023-04-14T21:32:20.760Z,6.13
2023-04-14T21:34:48.636Z,3.00
2023-04-14T21:37:19.055Z,3.83
2023-04-14T21:39:47.129Z,4.13
2023-04-14T21:42:14.965Z,3.37
2023-04-14T21:44:42.853Z,2.97
2023-04-14T21:47:10.926Z,3.67
2023-04-14T21:49:38.693Z,4.03
2023-04-14T21:52:06.569Z,3.93
2023-04-14T21:54:38.809Z,4.10
2023-04-14T21:57:06.884Z,4.63
2023-04-14T21:59:34.895Z,6.37
2023-04-14T22:02:03.855Z,4.17
2023-04-14T22:04:36.368Z,8.47
2023-04-14T22:07:05.503Z,5.47
2023-04-14T22:09:34.397Z,12.30
2023-04-14T22:12:03.716Z,5.60
2023-04-14T22:14:31.543Z,4.97
2023-04-14T22:17:00.915Z,3.33
2023-04-14T22:19:29.918Z,4.20
2023-04-14T22:21:57.665Z,5.00
2023-04-14T22:24:25.466Z,4.60
2023-04-14T22:26:54.045Z,5.47
2023-04-14T22:29:23.247Z,5.97
2023-04-14T22:31:51.268Z,3.97
2023-04-14T22:34:19.076Z,4.53
2023-04-14T22:36:47.102Z,4.70
2023-04-14T22:39:14.994Z,4.17
2023-04-14T22:41:45.349Z,4.80
2023-04-14T22:44:13.332Z,4.53
2023-04-14T22:46:42.524Z,5.23
2023-04-14T22:49:10.589Z,3.80
2023-04-14T22:51:38.524Z,5.90
2023-04-14T22:54:06.668Z,5.03
2023-04-14T22:56:34.611Z,2.67
2023-04-14T22:59:03.014Z,5.00
2023-04-14T23:01:31.051Z,4.13
2023-04-14T23:04:00.670Z,3.90
2023-04-14T23:06:28.660Z,4.73
2023-04-14T23:08:56.443Z,2.67
2023-04-14T23:11:24.242Z,5.13
2023-04-14T23:13:52.158Z,5.00
2023-04-14T23:16:20.732Z,4.10
2023-04-14T23:18:51.987Z,3.97
2023-04-14T23:21:22.222Z,3.00
2023-04-14T23:23:50.296Z,4.80
2023-04-14T23:26:19.603Z,4.10
2023-04-14T23:28:47.819Z,7.07
2023-04-14T23:31:15.731Z,4.27
2023-04-14T23:33:43.699Z,4.40
2023-04-14T23:36:11.708Z,4.13
2023-04-14T23:38:41.162Z,6.77
2023-04-14T23:41:09.034Z,5.83
2023-04-14T23:43:36.853Z,5.03
2023-04-14T23:46:04.864Z,3.33
2023-04-14T23:48:32.755Z,4.93
2023-04-14T23:51:15.556Z,3.53
2023-04-14T23:53:45.592Z,5.40
2023-04-14T23:56:13.387Z,4.63
2023-04-14T23:58:41.218Z,6.40
